createdAt,value
2022-08-20T00:01:10.258Z,98827.41
2022-08-20T00:03:40.582Z,98825.06
2022-08-20T00:06:17.875Z,98831.84
2022-08-20T00:08:45.857Z,98830.06
2022-08-20T00:11:19.616Z,98820.06
2022-08-20T00:13:52.929Z,98831.97
2022-08-20T00:16:23.005Z,98830.06
2022-08-20T00:18:50.083Z,98837.38
2022-08-20T00:21:20.317Z,98843.06
2022-08-20T00:23:50.897Z,98839.31
2022-08-20T00:26:19.213Z,98838.75
2022-08-20T00:28:47.339Z,98849.25
2022-08-20T00:31:19.249Z,98848.41
2022-08-20T00:33:47.482Z,98833.19
2022-08-20T00:36:17.454Z,98838.09
2022-08-20T00:38:46.467Z,98838.94
2022-08-20T00:41:20.124Z,98840.38
2022-08-20T00:44:07.069Z,98847.81
2022-08-20T00:46:35.473Z,98835.59
2022-08-20T00:49:05.805Z,98839.72
2022-08-20T00:51:47.692Z,98857.22
2022-08-20T00:54:19.754Z,98851.91
2022-08-20T00:56:52.665Z,98850.25
2022-08-20T00:59:26.428Z,98845.44
2022-08-20T01:01:55.175Z,98854.97
2022-08-20T01:04:29.640Z,98839.19
2022-08-20T01:06:56.514Z,98842.75
2022-08-20T01:09:49.838Z,98859.66
2022-08-20T01:12:13.586Z,98845.97
2022-08-20T01:14:46.637Z,98838.88
2022-08-20T01:17:26.034Z,98864.09
2022-08-20T01:20:02.114Z,98867.69
2022-08-20T01:23:03.932Z,98874.47
2022-08-20T01:26:25.869Z,98862.72
2022-08-20T01:29:23.283Z,98874.34
2022-08-20T01:31:50.234Z,98876.00
2022-08-20T01:34:20.645Z,98883.03
2022-08-20T01:36:55.093Z,98879.56
2022-08-20T01:39:27.830Z,98882.03
2022-08-20T01:42:29.792Z,98880.97
2022-08-20T01:44:56.642Z,98870.03
2022-08-20T01:47:35.354Z,98865.41
2022-08-20T01:50:18.237Z,98886.56
2022-08-20T01:52:59.707Z,98887.41
2022-08-20T01:55:27.771Z,98891.78
2022-08-20T01:57:54.949Z,98863.84
2022-08-20T02:00:23.385Z,98886.97
2022-08-20T02:02:50.939Z,98893.59
2022-08-20T02:05:20.108Z,98893.97
2022-08-20T02:07:47.211Z,98871.44
2022-08-20T02:10:17.839Z,98884.38
2022-08-20T02:12:44.847Z,98880.78
2022-08-20T02:15:12.749Z,98899.91
2022-08-20T02:17:41.751Z,98898.38
2022-08-20T02:20:20.845Z,98901.00
2022-08-20T02:22:58.631Z,98891.97
2022-08-20T02:25:29.487Z,98910.41
2022-08-20T02:28:00.574Z,98890.56
2022-08-20T02:30:33.319Z,98899.56
2022-08-20T02:33:03.726Z,98894.09
2022-08-20T02:35:31.828Z,98906.19
2022-08-20T02:38:01.121Z,98896.47
2022-08-20T02:40:30.708Z,98906.00
2022-08-20T02:42:59.966Z,98906.53
2022-08-20T02:45:27.105Z,98908.31
2022-08-20T02:47:55.632Z,98882.56
2022-08-20T02:50:24.945Z,98902.44
2022-08-20T02:52:53.262Z,98903.66
2022-08-20T02:55:27.164Z,98896.72
2022-08-20T02:57:58.798Z,98897.97
2022-08-20T03:00:27.917Z,98898.44
2022-08-20T03:02:54.785Z,98880.47
2022-08-20T03:05:21.603Z,98892.00
2022-08-20T03:07:53.741Z,98896.53
2022-08-20T03:10:32.101Z,98885.84
2022-08-20T03:13:01.541Z,98890.84
2022-08-20T03:15:30.925Z,98892.00
2022-08-20T03:17:58.201Z,98883.16
2022-08-20T03:20:26.084Z,98886.16
2022-08-20T03:22:53.271Z,98874.91
2022-08-20T03:25:20.266Z,98880.59
2022-08-20T03:27:47.382Z,98865.00
2022-08-20T03:30:21.729Z,98880.16
2022-08-20T03:32:48.550Z,98869.81
2022-08-20T03:35:17.517Z,98884.59
2022-08-20T03:37:55.519Z,98882.91
2022-08-20T03:40:30.998Z,98884.22
2022-08-20T03:42:58.658Z,98885.72
2022-08-20T03:45:27.803Z,98894.00
2022-08-20T03:47:55.574Z,98897.81
2022-08-20T03:50:26.497Z,98898.34
2022-08-20T03:52:55.022Z,98902.88
2022-08-20T03:55:24.018Z,98899.41
2022-08-20T03:58:02.240Z,98903.06
2022-08-20T04:00:42.191Z,98892.19
2022-08-20T04:03:10.530Z,98916.47
2022-08-20T04:05:40.626Z,98883.63
2022-08-20T04:08:11.260Z,98914.22
2022-08-20T04:10:38.874Z,98888.59
2022-08-20T04:13:07.143Z,98895.59
2022-08-20T04:15:36.989Z,98901.94
2022-08-20T04:18:08.965Z,98890.06
2022-08-20T04:20:38.338Z,98907.22
2022-08-20T04:23:06.504Z,98915.41
2022-08-20T04:25:36.349Z,98904.84
2022-08-20T04:28:10.710Z,98918.50
2022-08-20T04:30:43.293Z,98919.22
2022-08-20T04:33:10.601Z,98912.94
2022-08-20T04:35:37.815Z,98909.00
2022-08-20T04:38:08.289Z,98919.63
2022-08-20T04:40:58.006Z,98919.38
2022-08-20T04:43:35.467Z,98917.00
2022-08-20T04:46:06.726Z,98925.56
2022-08-20T04:48:33.603Z,98921.97
2022-08-20T04:51:02.560Z,98917.69
2022-08-20T04:53:30.828Z,98921.13
2022-08-20T04:56:00.644Z,98941.31
2022-08-20T04:58:33.825Z,98923.69
2022-08-20T05:01:08.158Z,98939.50
2022-08-20T05:03:37.591Z,98934.50
2022-08-20T05:06:07.185Z,98947.47
2022-08-20T05:08:35.783Z,98945.91
2022-08-20T05:11:06.703Z,98934.25
2022-08-20T05:13:53.518Z,98950.44
2022-08-20T05:16:21.362Z,98948.91
2022-08-20T05:18:52.230Z,98933.78
2022-08-20T05:21:20.793Z,98957.25
2022-08-20T05:23:47.697Z,98948.59
2022-08-20T05:26:16.070Z,98949.19
2022-08-20T05:28:51.288Z,98955.09
2022-08-20T05:31:32.488Z,98937.19
2022-08-20T05:34:10.428Z,98951.09
2022-08-20T05:36:42.037Z,98968.31
2022-08-20T05:39:10.297Z,98962.09
2022-08-20T05:41:38.453Z,98957.25
2022-08-20T05:44:09.881Z,98969.84
2022-08-20T05:46:40.918Z,98978.22
2022-08-20T05:49:16.181Z,98966.41
2022-08-20T05:51:43.851Z,98966.91
2022-08-20T05:54:11.276Z,98976.78
2022-08-20T05:56:38.548Z,98964.41
2022-08-20T05:59:08.390Z,98966.78
2022-08-20T06:01:38.709Z,98977.00
2022-08-20T06:04:25.079Z,98956.41
2022-08-20T06:06:55.642Z,98975.22
2022-08-20T06:09:31.320Z,98955.69
2022-08-20T06:12:05.987Z,98961.47
2022-08-20T06:14:33.443Z,98970.88
2022-08-20T06:17:19.077Z,98973.25
2022-08-20T06:19:49.216Z,98966.72
2022-08-20T06:22:20.641Z,98968.00
2022-08-20T06:24:55.063Z,98974.81
2022-08-20T06:27:22.857Z,98968.84
2022-08-20T06:29:50.900Z,98980.25
2022-08-20T06:32:19.787Z,98974.72
2022-08-20T06:34:55.712Z,98970.59
2022-08-20T06:37:31.075Z,98979.50
2022-08-20T06:40:08.872Z,98985.78
2022-08-20T06:42:36.162Z,98983.47
2022-08-20T06:45:05.749Z,98985.31
2022-08-20T06:47:33.808Z,98974.09
2022-08-20T06:50:00.654Z,98971.47
2022-08-20T06:52:51.633Z,98955.59
2022-08-20T06:55:17.313Z,98975.44
2022-08-20T06:57:44.701Z,98961.72
2022-08-20T07:00:17.361Z,98968.97
2022-08-20T07:02:44.210Z,98963.13
2022-08-20T07:05:12.573Z,98967.53
2022-08-20T07:07:39.782Z,98965.19
2022-08-20T07:10:13.189Z,98991.47
2022-08-20T07:12:40.052Z,98990.09
2022-08-20T07:15:11.010Z,98977.22
2022-08-20T07:17:39.012Z,98972.81
2022-08-20T07:20:15.357Z,98989.31
2022-08-20T07:22:43.261Z,98989.03
2022-08-20T07:25:14.388Z,98992.66
2022-08-20T07:27:42.864Z,98986.84
2022-08-20T07:30:33.104Z,98991.44
2022-08-20T07:33:20.039Z,98995.06
2022-08-20T07:35:49.026Z,99006.81
2022-08-20T07:38:24.728Z,99008.09
2022-08-20T07:41:06.162Z,99006.88
2022-08-20T07:43:33.446Z,98995.25
2022-08-20T07:46:02.977Z,98992.88
2022-08-20T07:48:32.139Z,99011.31
2022-08-20T07:51:04.315Z,99009.53
2022-08-20T07:53:35.826Z,99015.22
2022-08-20T07:56:07.144Z,99004.25
2022-08-20T07:58:38.363Z,99020.19
2022-08-20T08:01:07.120Z,99001.47
2022-08-20T08:03:40.896Z,98975.97
2022-08-20T08:06:29.741Z,99011.38
2022-08-20T08:09:07.799Z,99000.56
2022-08-20T08:11:39.723Z,99007.94
2022-08-20T08:14:11.774Z,99008.94
2022-08-20T08:16:39.331Z,99003.28
2022-08-20T08:19:09.402Z,98981.94
2022-08-20T08:21:36.319Z,98996.78
2022-08-20T08:24:03.659Z,98978.19
2022-08-20T08:26:30.627Z,99006.47
2022-08-20T08:28:58.372Z,99005.38
2022-08-20T08:31:25.997Z,99005.22
2022-08-20T08:33:53.098Z,98994.13
2022-08-20T08:36:20.063Z,98983.03
2022-08-20T08:38:47.012Z,98980.41
2022-08-20T08:41:29.416Z,98994.03
2022-08-20T08:44:12.860Z,98992.78
2022-08-20T08:46:44.185Z,98990.00
2022-08-20T08:49:22.492Z,98997.19
2022-08-20T08:51:56.205Z,98984.59
2022-08-20T08:54:27.439Z,98996.38
2022-08-20T08:56:54.906Z,98987.47
2022-08-20T08:59:23.260Z,98991.22
2022-08-20T09:01:57.277Z,98996.78
2022-08-20T09:04:38.315Z,98977.25
2022-08-20T09:07:10.951Z,98990.13
2022-08-20T09:09:42.201Z,98982.22
2022-08-20T09:12:22.408Z,98975.72
2022-08-20T09:14:51.722Z,98983.97
2022-08-20T09:17:22.134Z,98979.56
2022-08-20T09:19:52.056Z,98988.00
2022-08-20T09:22:25.900Z,98988.56
2022-08-20T09:24:53.288Z,98968.97
2022-08-20T09:27:20.627Z,98983.38
2022-08-20T09:29:49.232Z,98963.97
2022-08-20T09:32:23.885Z,98991.38
2022-08-20T09:34:58.099Z,98992.50
2022-08-20T09:37:33.611Z,98977.16
2022-08-20T09:40:02.355Z,98979.94
2022-08-20T09:42:36.351Z,98971.59
2022-08-20T09:45:11.153Z,98971.19
2022-08-20T09:47:41.685Z,98976.81
2022-08-20T09:50:22.139Z,98967.41
2022-08-20T09:52:54.258Z,98963.78
2022-08-20T09:55:33.079Z,98964.06
2022-08-20T09:58:03.500Z,98961.69
2022-08-20T10:00:30.649Z,98963.38
2022-08-20T10:02:57.675Z,98961.53
2022-08-20T10:05:24.583Z,98978.50
2022-08-20T10:07:53.069Z,98977.91
2022-08-20T10:10:20.016Z,98980.13
2022-08-20T10:12:48.126Z,98986.50
2022-08-20T10:15:16.489Z,98981.19
2022-08-20T10:17:43.895Z,98980.66
2022-08-20T10:20:14.588Z,98982.19
2022-08-20T10:22:41.802Z,98981.78
2022-08-20T10:25:09.398Z,98966.41
2022-08-20T10:27:36.316Z,98973.75
2022-08-20T10:30:06.223Z,98964.06
2022-08-20T10:32:33.087Z,98972.22
2022-08-20T10:34:59.980Z,98965.31
2022-08-20T10:37:27.305Z,98965.22
2022-08-20T10:39:56.338Z,98940.31
2022-08-20T10:42:23.491Z,98950.03
2022-08-20T10:44:50.327Z,98961.28
2022-08-20T10:47:30.784Z,98971.09
2022-08-20T10:50:01.273Z,98969.00
2022-08-20T10:52:28.913Z,98966.50
2022-08-20T10:54:56.206Z,98962.94
2022-08-20T10:57:28.927Z,98950.75
2022-08-20T10:59:59.023Z,98955.44
2022-08-20T11:02:27.539Z,98967.06
2022-08-20T11:04:55.942Z,98964.56
2022-08-20T11:07:49.977Z,98944.63
2022-08-20T11:10:29.120Z,98975.13
2022-08-20T11:12:56.146Z,98930.66
2022-08-20T11:15:23.514Z,98976.09
2022-08-20T11:17:50.653Z,98964.97
2022-08-20T11:20:21.187Z,98984.28
2022-08-20T11:22:48.155Z,98990.66
2022-08-20T11:25:15.017Z,98971.28
2022-08-20T11:27:48.855Z,98997.84
2022-08-20T11:30:37.616Z,98976.22
2022-08-20T11:33:04.972Z,98993.72
2022-08-20T11:35:48.215Z,98993.16
2022-08-20T11:38:17.026Z,98979.03
2022-08-20T11:40:43.904Z,98989.00
2022-08-20T11:43:16.164Z,99002.59
2022-08-20T11:45:47.831Z,99014.66
2022-08-20T11:48:14.698Z,99010.78
2022-08-20T11:50:41.623Z,98999.44
2022-08-20T11:53:08.437Z,99016.06
2022-08-20T11:55:36.441Z,99010.53
2022-08-20T11:58:03.944Z,98998.63
2022-08-20T12:00:33.987Z,99009.84
2022-08-20T12:03:02.287Z,99001.81
2022-08-20T12:05:30.197Z,99004.28
2022-08-20T12:07:58.074Z,99001.25
2022-08-20T12:10:26.733Z,99002.06
2022-08-20T12:12:54.510Z,99009.25
2022-08-20T12:15:21.473Z,99020.63
2022-08-20T12:17:48.347Z,99016.34
2022-08-20T12:20:16.080Z,99018.28
2022-08-20T12:22:44.544Z,99007.19
2022-08-20T12:25:12.387Z,99010.94
2022-08-20T12:27:39.781Z,99008.84
2022-08-20T12:30:15.603Z,99012.59
2022-08-20T12:32:42.761Z,99019.09
2022-08-20T12:35:11.698Z,98999.56
2022-08-20T12:37:39.821Z,99018.72
2022-08-20T12:40:12.580Z,99002.88
2022-08-20T12:42:39.614Z,99006.16
2022-08-20T12:45:07.609Z,99005.31
2022-08-20T12:47:39.502Z,99008.91
2022-08-20T12:50:20.703Z,98994.47
2022-08-20T12:52:48.263Z,98987.91
2022-08-20T12:55:19.443Z,98991.22
2022-08-20T12:57:54.149Z,98988.84
2022-08-20T13:00:26.076Z,98989.81
2022-08-20T13:02:55.056Z,98997.41
2022-08-20T13:05:22.565Z,99001.66
2022-08-20T13:07:49.670Z,98986.00
2022-08-20T13:10:31.059Z,99000.38
2022-08-20T13:12:59.468Z,98998.53
2022-08-20T13:15:26.358Z,98987.28
2022-08-20T13:17:55.564Z,98992.28
2022-08-20T13:20:31.003Z,98984.34
2022-08-20T13:23:01.207Z,98991.31
2022-08-20T13:25:28.017Z,98993.22
2022-08-20T13:28:02.203Z,98989.66
2022-08-20T13:30:29.090Z,99000.84
2022-08-20T13:32:56.108Z,98991.47
2022-08-20T13:35:23.239Z,99009.03
2022-08-20T13:37:50.834Z,99033.91
2022-08-20T13:40:18.670Z,99044.69
2022-08-20T13:42:45.761Z,99029.91
2022-08-20T13:45:12.729Z,99041.03
2022-08-20T13:47:42.291Z,99036.34
2022-08-20T13:50:19.463Z,99021.19
2022-08-20T13:52:46.779Z,99011.94
2022-08-20T13:55:19.954Z,99021.38
2022-08-20T13:57:47.582Z,99009.75
2022-08-20T14:00:31.119Z,99015.97
2022-08-20T14:03:00.932Z,99011.69
2022-08-20T14:05:28.730Z,99011.84
2022-08-20T14:07:55.979Z,99021.00
2022-08-20T14:10:26.882Z,99016.13
2022-08-20T14:12:53.810Z,99001.56
2022-08-20T14:15:20.764Z,99009.47
2022-08-20T14:17:56.630Z,98990.53
2022-08-20T14:20:32.185Z,98986.81
2022-08-20T14:23:00.213Z,98997.31
2022-08-20T14:25:29.036Z,98986.78
2022-08-20T14:27:56.811Z,98976.63
2022-08-20T14:30:30.280Z,98981.41
2022-08-20T14:32:57.344Z,98984.13
2022-08-20T14:35:24.285Z,98986.88
2022-08-20T14:37:54.168Z,98975.31
2022-08-20T14:40:33.764Z,98873.47
2022-08-20T14:43:03.422Z,98915.09
2022-08-20T14:45:32.965Z,98881.06
2022-08-20T14:48:01.080Z,98873.53
2022-08-20T14:50:34.354Z,98855.75
2022-08-20T14:53:02.625Z,98855.81
2022-08-20T14:55:35.838Z,98882.13
2022-08-20T14:58:12.313Z,98867.09
2022-08-20T15:00:39.758Z,98873.22
2022-08-20T15:03:11.983Z,98962.53
2022-08-20T15:05:45.184Z,98905.53
2022-08-20T15:08:12.129Z,98928.31
2022-08-20T15:10:46.203Z,98883.28
2022-08-20T15:13:13.239Z,98857.94
2022-08-20T15:15:41.992Z,98927.66
2022-08-20T15:18:11.938Z,98890.13
2022-08-20T15:20:41.322Z,98913.03
2022-08-20T15:23:08.742Z,98941.75
2022-08-20T15:25:37.853Z,98909.53
2022-08-20T15:28:08.697Z,98855.97
2022-08-20T15:30:41.174Z,98913.75
2022-08-20T15:33:11.174Z,98928.41
2022-08-20T15:35:38.458Z,98843.53
2022-08-20T15:38:05.780Z,98876.19
2022-08-20T15:40:33.996Z,98855.00
2022-08-20T15:43:05.165Z,98920.09
2022-08-20T15:45:33.821Z,98841.78
2022-08-20T15:48:18.137Z,98845.53
2022-08-20T15:50:47.893Z,98943.91
2022-08-20T15:53:31.208Z,98849.25
2022-08-20T15:56:17.278Z,98865.63
2022-08-20T15:58:58.940Z,98902.56
2022-08-20T16:01:58.325Z,98860.88
2022-08-20T16:04:44.373Z,98862.50
2022-08-20T16:07:20.267Z,98870.56
2022-08-20T16:10:21.269Z,98865.91
2022-08-20T16:12:53.974Z,98941.34
2022-08-20T16:15:28.084Z,98945.31
2022-08-20T16:18:17.283Z,98879.03
2022-08-20T16:20:48.348Z,98854.47
2022-08-20T16:23:25.024Z,98880.66
2022-08-20T16:26:07.307Z,98936.75
2022-08-20T16:28:52.578Z,98859.53
2022-08-20T16:31:24.836Z,98877.50
2022-08-20T16:34:05.036Z,98891.06
2022-08-20T16:37:16.410Z,98965.09
2022-08-20T16:40:09.077Z,98924.94
2022-08-20T16:42:44.646Z,98861.97
2022-08-20T16:45:34.021Z,98882.09
2022-08-20T16:48:06.955Z,98884.16
2022-08-20T16:50:58.176Z,98863.59
2022-08-20T16:53:26.859Z,98960.84
2022-08-20T16:55:55.214Z,98960.00
2022-08-20T16:58:22.143Z,98953.25
2022-08-20T17:01:10.841Z,98941.31
2022-08-20T17:03:39.837Z,98958.22
2022-08-20T17:06:39.828Z,98931.88
2022-08-20T17:09:20.980Z,98951.28
2022-08-20T17:11:47.996Z,98955.38
2022-08-20T17:14:19.272Z,98932.31
2022-08-20T17:16:50.436Z,98933.31
2022-08-20T17:19:30.792Z,98956.16
2022-08-20T17:22:14.607Z,98948.22
2022-08-20T17:24:41.638Z,98949.66
2022-08-20T17:27:14.938Z,98958.09
2022-08-20T17:29:53.585Z,98948.94
2022-08-20T17:32:28.784Z,98954.94
2022-08-20T17:34:59.661Z,98955.72
2022-08-20T17:37:36.491Z,98952.31
2022-08-20T17:40:30.130Z,98952.09
2022-08-20T17:43:07.883Z,98957.50
2022-08-20T17:45:40.177Z,98960.09
2022-08-20T17:48:14.305Z,98947.72
2022-08-20T17:50:42.993Z,98961.69
2022-08-20T17:53:33.827Z,98959.94
2022-08-20T17:56:19.536Z,98964.09
2022-08-20T17:59:20.454Z,98963.88
2022-08-20T18:02:01.527Z,98960.41
2022-08-20T18:04:30.342Z,98967.59
2022-08-20T18:07:12.861Z,98961.75
2022-08-20T18:10:18.277Z,98961.81
2022-08-20T18:12:52.907Z,98957.50
2022-08-20T18:15:38.666Z,98950.25
2022-08-20T18:18:20.575Z,98966.41
2022-08-20T18:21:10.952Z,98968.81
2022-08-20T18:23:47.720Z,98959.81
2022-08-20T18:26:25.203Z,98973.97
2022-08-20T18:29:30.531Z,98978.09
2022-08-20T18:32:02.297Z,98973.41
2022-08-20T18:34:29.587Z,98979.38
2022-08-20T18:37:21.147Z,98984.13
2022-08-20T18:39:50.314Z,98988.69
2022-08-20T18:42:33.983Z,98986.13
2022-08-20T18:45:01.800Z,98988.06
2022-08-20T18:47:34.587Z,98996.72
2022-08-20T18:50:16.754Z,98990.91
2022-08-20T18:52:53.372Z,98988.84
2022-08-20T18:55:37.357Z,98976.81
2022-08-20T18:58:12.595Z,98976.25
2022-08-20T19:00:49.360Z,98999.69
2022-08-20T19:03:38.389Z,98993.47
2022-08-20T19:06:08.514Z,99003.59
2022-08-20T19:09:18.547Z,98994.16
2022-08-20T19:12:00.364Z,99002.03
2022-08-20T19:15:12.636Z,99006.34
2022-08-20T19:18:08.413Z,98999.56
2022-08-20T19:20:39.897Z,99004.41
2022-08-20T19:23:21.016Z,99007.06
2022-08-20T19:25:57.823Z,98988.31
2022-08-20T19:28:42.573Z,99012.88
2022-08-20T19:31:32.502Z,99009.94
2022-08-20T19:34:24.002Z,98976.25
2022-08-20T19:37:10.057Z,99011.72
2022-08-20T19:39:50.803Z,99018.41
2022-08-20T19:42:24.433Z,98988.00
2022-08-20T19:45:05.641Z,99016.44
2022-08-20T19:47:38.514Z,99020.72
2022-08-20T19:50:37.597Z,99021.97
2022-08-20T19:53:16.440Z,99026.41
2022-08-20T19:55:43.341Z,99017.75
2022-08-20T19:58:26.643Z,99011.22
2022-08-20T20:00:55.425Z,99036.03
2022-08-20T20:03:27.595Z,99027.16
2022-08-20T20:05:57.042Z,99024.94
2022-08-20T20:08:37.450Z,99030.72
2022-08-20T20:11:06.005Z,99022.97
2022-08-20T20:13:37.679Z,99011.13
2022-08-20T20:16:07.490Z,99000.63
2022-08-20T20:18:39.399Z,99014.34
2022-08-20T20:21:23.520Z,99026.78
2022-08-20T20:23:58.222Z,99033.03
2022-08-20T20:26:36.577Z,99039.81
2022-08-20T20:29:13.618Z,99002.47
2022-08-20T20:31:52.297Z,98991.22
2022-08-20T20:34:36.410Z,99043.13
2022-08-20T20:37:50.183Z,99037.81
2022-08-20T20:40:35.926Z,99025.84
2022-08-20T20:43:08.218Z,99041.38
2022-08-20T20:45:44.892Z,99039.81
2022-08-20T20:48:24.847Z,99039.91
2022-08-20T20:50:56.301Z,99022.44
2022-08-20T20:53:50.890Z,99040.47
2022-08-20T20:56:34.726Z,99045.16
2022-08-20T20:59:06.107Z,99046.59
2022-08-20T21:01:49.979Z,99051.00
2022-08-20T21:04:21.257Z,99049.53
2022-08-20T21:06:48.743Z,99050.13
2022-08-20T21:09:15.783Z,99054.44
2022-08-20T21:11:42.682Z,99040.28
2022-08-20T21:14:09.531Z,99045.53
2022-08-20T21:16:36.588Z,99036.72
2022-08-20T21:19:06.896Z,99048.03
2022-08-20T21:21:34.078Z,99048.31
2022-08-20T21:24:00.894Z,99034.19
2022-08-20T21:26:28.468Z,99045.28
2022-08-20T21:28:55.555Z,99043.56
2022-08-20T21:31:31.116Z,99035.25
2022-08-20T21:33:57.998Z,99013.69
2022-08-20T21:36:24.925Z,99044.59
2022-08-20T21:38:51.727Z,99025.41
2022-08-20T21:41:18.979Z,99041.63
2022-08-20T21:43:56.636Z,99043.75
2022-08-20T21:46:25.010Z,99049.50
2022-08-20T21:48:51.995Z,99030.06
2022-08-20T21:51:18.853Z,99029.75
2022-08-20T21:53:45.829Z,99053.47
2022-08-20T21:56:12.765Z,99054.81
2022-08-20T21:58:39.706Z,99061.72
2022-08-20T22:01:07.611Z,99033.31
2022-08-20T22:03:38.631Z,99060.63
2022-08-20T22:06:11.628Z,99063.09
2022-08-20T22:08:38.783Z,99066.84
2022-08-20T22:11:08.227Z,99063.06
2022-08-20T22:13:35.356Z,99058.91
2022-08-20T22:16:07.530Z,99071.06
2022-08-20T22:18:35.445Z,99071.31
2022-08-20T22:21:03.682Z,99069.16
2022-08-20T22:23:30.581Z,99038.19
2022-08-20T22:25:57.480Z,99058.91
2022-08-20T22:28:24.870Z,99058.31
2022-08-20T22:30:52.083Z,99058.31
2022-08-20T22:33:23.209Z,99056.16
2022-08-20T22:35:53.535Z,99066.53
2022-08-20T22:38:21.542Z,99052.69
2022-08-20T22:40:49.011Z,99065.94
2022-08-20T22:43:16.360Z,99059.97
2022-08-20T22:45:45.691Z,99074.19
2022-08-20T22:48:18.069Z,99082.06
2022-08-20T22:50:45.367Z,99036.53
2022-08-20T22:53:13.660Z,99049.50
2022-08-20T22:55:40.709Z,99074.16
2022-08-20T22:58:08.454Z,99065.47
2022-08-20T23:00:38.513Z,99073.97
2022-08-20T23:03:07.029Z,99076.31
2022-08-20T23:05:37.212Z,99075.41
2022-08-20T23:08:06.855Z,99068.00
2022-08-20T23:10:35.538Z,99070.97
2022-08-20T23:13:02.391Z,99068.47
2022-08-20T23:15:31.579Z,99055.81
2022-08-20T23:18:06.225Z,99065.50
2022-08-20T23:20:33.184Z,99070.38
2022-08-20T23:23:00.350Z,99070.16
2022-08-20T23:25:28.275Z,99076.56
2022-08-20T23:28:03.399Z,99072.28
2022-08-20T23:30:31.090Z,99061.75
2022-08-20T23:32:58.197Z,99070.72
2022-08-20T23:35:32.076Z,99074.44
2022-08-20T23:38:00.456Z,99075.38
2022-08-20T23:40:28.965Z,99061.59
2022-08-20T23:42:57.264Z,99070.31
2022-08-20T23:45:24.790Z,99057.75
2022-08-20T23:47:51.909Z,99043.13
2022-08-20T23:50:24.224Z,99064.38
2022-08-20T23:52:52.547Z,99068.88
2022-08-20T23:55:20.605Z,99060.31
2022-08-20T23:57:47.414Z,99048.84
